Boyang, China
Current Conditions -  °F | °C
As of 12:00 AM on Sunday 26 Oct 2014 (Local Time) from ZHHH Reporting Station
Haze Haze  
Wind Chill: 70°   Ceiling: Unl
Heat Index: 70°   Visibility: 3mi
Dew Point: 61°   Wind: 7mph
Humidity: 73%   Direction: 110°ESE
Pressure: 30"   Gusts: NA
Location:  28.98°N, 116.67°E
Report Text: ZHHH 251600Z 11003MPS 040V140 5000 HZ NSC 21/16 Q1016 NOSIG
Loading
Personal Weather Stations






























Interactive Weather Map
Tropical Storm Tracking
New forecast layout! Learn more

10-Day Weather Forecast

Advertisements
Track Severe Weather on mobile